Time;durP1;ratioP1;P1;durP2;ratioP2;P2;SDS_P1;SDS_P2;PMS_P1;PMS_P2;Temp;Humidity;BMP_temperature;BMP_pressure;BME280_temperature;BME280_humidity;BME280_pressure;Samples;Min_cycle;Max_cycle;Signal;HPM_P1;HPM_P2
2022/06/26 00:00:49;;;;;;;3.40;3.08;;;;;;;22.18;71.87;99408.63;4953920;29;20122;-89
2022/06/26 00:03:14;;;;;;;4.35;3.60;;;;;;;22.16;72.65;99401.72;4938140;29;20083;-89
2022/06/26 00:05:39;;;;;;;3.53;3.13;;;;;;;22.07;73.11;99403.94;4933550;29;20024;-89
2022/06/26 00:08:05;;;;;;;4.35;3.17;;;;;;;22.14;72.52;99406.56;4903441;29;20091;-90
2022/06/26 00:10:31;;;;;;;3.38;3.08;;;;;;;22.15;72.29;99403.63;4914310;29;20041;-89
2022/06/26 00:12:56;;;;;;;4.10;3.53;;;;;;;22.08;72.35;99391.13;4948051;29;20090;-90
2022/06/26 00:15:22;;;;;;;3.95;3.53;;;;;;;22.04;73.20;99398.09;4922351;29;20034;-89
2022/06/26 00:17:48;;;;;;;3.40;3.10;;;;;;;22.04;73.04;99407.09;4922703;29;20027;-89
2022/06/26 00:20:13;;;;;;;3.30;3.00;;;;;;;22.06;73.59;99394.09;4922143;29;20024;-89
2022/06/26 00:22:39;;;;;;;3.63;3.30;;;;;;;22.11;73.39;99390.69;4928293;29;20036;-89
2022/06/26 00:25:05;;;;;;;4.10;3.25;;;;;;;22.10;73.31;99392.56;4903327;29;20031;-89
2022/06/26 00:27:30;;;;;;;3.53;2.83;;;;;;;22.04;73.51;99392.66;4903456;29;20491;-90
2022/06/26 00:29:55;;;;;;;4.82;3.60;;;;;;;21.96;73.71;99393.75;4915940;29;20046;-89
2022/06/26 00:32:21;;;;;;;3.22;3.00;;;;;;;21.94;73.73;99401.31;4903498;29;20020;-89
2022/06/26 00:34:46;;;;;;;3.53;3.22;;;;;;;21.95;73.15;99403.81;4918800;29;20387;-89
2022/06/26 00:37:11;;;;;;;4.50;4.00;;;;;;;21.98;73.11;99410.69;4903138;29;20051;-89
2022/06/26 00:39:37;;;;;;;4.15;3.70;;;;;;;21.93;72.96;99405.09;4903158;29;20028;-90
2022/06/26 00:42:03;;;;;;;3.75;3.33;;;;;;;21.92;73.28;99411.59;4919399;29;20463;-89
2022/06/26 00:44:29;;;;;;;4.60;3.58;;;;;;;21.87;73.24;99409.56;4922194;29;20058;-89
2022/06/26 00:46:55;;;;;;;3.88;3.47;;;;;;;21.81;72.72;99412.34;4937825;29;20497;-89
2022/06/26 00:49:20;;;;;;;4.00;3.60;;;;;;;21.79;73.01;99415.28;4932029;29;20036;-89
2022/06/26 00:51:53;;;;;;;4.15;3.58;;;;;;;21.80;73.10;99421.56;4904161;29;20024;-89
2022/06/26 00:54:21;;;;;;;4.72;3.53;;;;;;;21.83;73.66;99427.41;4936482;29;20100;-89
2022/06/26 00:56:46;;;;;;;4.80;3.65;;;;;;;21.83;73.65;99432.00;4930896;29;20537;-89
2022/06/26 00:59:13;;;;;;;3.97;3.22;;;;;;;21.84;74.00;99430.94;4906016;29;20062;-89
2022/06/26 01:01:42;;;;;;;4.20;3.80;;;;;;;21.82;72.89;99428.47;4921570;29;20035;-89
2022/06/26 01:04:07;;;;;;;4.43;3.45;;;;;;;21.84;73.33;99428.22;4921580;29;20111;-89
2022/06/26 01:06:41;;;;;;;5.13;3.20;;;;;;;21.85;73.05;99430.72;4920412;29;20114;-88
2022/06/26 01:09:07;;;;;;;4.05;3.40;;;;;;;21.84;73.41;99439.13;4932996;29;20050;-88
2022/06/26 01:11:32;;;;;;;4.03;3.63;;;;;;;21.83;73.45;99449.19;4928836;29;20450;-88
2022/06/26 01:13:58;;;;;;;3.70;3.40;;;;;;;21.81;72.80;99434.97;4919362;29;20386;-88
2022/06/26 01:16:24;;;;;;;4.07;3.63;;;;;;;21.77;73.12;99441.06;4934512;29;20027;-88
2022/06/26 01:18:52;;;;;;;3.58;3.28;;;;;;;21.77;73.65;99443.78;4937615;29;20449;-88
2022/06/26 01:21:18;;;;;;;4.30;3.88;;;;;;;21.74;73.27;99466.81;4935098;29;20027;-87
2022/06/26 01:23:43;;;;;;;3.58;3.28;;;;;;;21.72;73.64;99455.31;4923302;29;20500;-88
2022/06/26 01:26:09;;;;;;;5.35;3.35;;;;;;;21.72;73.10;99458.03;4939515;29;20159;-88
2022/06/26 01:28:34;;;;;;;4.72;3.35;;;;;;;21.66;72.07;99458.94;4933157;29;20154;-88
2022/06/26 01:30:59;;;;;;;3.38;2.70;;;;;;;21.65;71.56;99466.28;4940957;28;20140;-88
2022/06/26 01:33:25;;;;;;;3.92;2.53;;;;;;;21.63;71.77;99464.81;4929531;29;20106;-88
2022/06/26 01:35:50;;;;;;;2.88;2.67;;;;;;;21.64;71.05;99463.78;4938776;29;20027;-88
2022/06/26 01:38:18;;;;;;;3.08;2.72;;;;;;;21.63;70.85;99464.81;4922825;29;20039;-88
2022/06/26 01:40:44;;;;;;;2.80;2.13;;;;;;;21.62;70.65;99468.59;4938603;29;20077;-88
2022/06/26 01:43:13;;;;;;;3.25;2.00;;;;;;;21.61;70.37;99465.03;4939053;29;20039;-89
2022/06/26 01:45:43;;;;;;;2.10;2.00;;;;;;;21.60;70.15;99466.09;4954483;29;20110;-88
2022/06/26 01:48:09;;;;;;;2.25;2.00;;;;;;;21.54;69.50;99453.38;4922698;29;20023;-89
2022/06/26 01:50:34;;;;;;;6.97;1.70;;;;;;;21.53;70.17;99454.44;4937880;29;20545;-88
2022/06/26 01:52:59;;;;;;;2.50;1.67;;;;;;;21.47;69.73;99460.78;4919042;29;20044;-88
2022/06/26 01:55:25;;;;;;;3.08;1.75;;;;;;;21.47;69.81;99468.09;4931886;29;20047;-88
2022/06/26 01:57:50;;;;;;;2.22;1.70;;;;;;;21.44;69.74;99454.94;4919643;29;20031;-88
2022/06/26 02:00:15;;;;;;;4.95;1.50;;;;;;;21.55;69.60;99448.78;4922081;29;20456;-89
2022/06/26 02:02:41;;;;;;;1.80;1.50;;;;;;;21.51;68.70;99455.72;4922970;29;20459;-89
2022/06/26 02:05:06;;;;;;;2.30;1.40;;;;;;;21.48;69.71;99448.81;4919999;29;20467;-88
2022/06/26 02:07:32;;;;;;;1.30;1.20;;;;;;;21.41;69.15;99453.50;4919861;29;20051;-88
2022/06/26 02:15:25;;;;;;;1.80;1.00;;;;;;;21.48;69.07;99473.31;4918672;29;20181;-88
2022/06/26 02:17:50;;;;;;;2.22;1.20;;;;;;;21.46;68.77;99475.44;4919396;29;20063;-88
2022/06/26 02:20:16;;;;;;;1.42;1.13;;;;;;;21.37;69.62;99468.59;4935221;29;20032;-88
2022/06/26 02:22:41;;;;;;;1.75;1.20;;;;;;;21.26;69.23;99466.53;4919115;29;20031;-89
2022/06/26 02:25:08;;;;;;;1.33;1.20;;;;;;;21.39;69.20;99471.09;4920219;29;20064;-89
2022/06/26 02:27:34;;;;;;;2.65;1.13;;;;;;;21.41;69.01;99468.97;4935717;29;20024;-88
2022/06/26 02:30:00;;;;;;;2.08;1.05;;;;;;;21.40;69.22;99468.16;4916124;29;20032;-88
2022/06/26 02:32:25;;;;;;;1.58;1.27;;;;;;;21.31;68.74;99469.47;4925215;29;20024;-88
2022/06/26 02:34:50;;;;;;;1.48;1.20;;;;;;;21.34;69.21;99469.03;4932576;29;20459;-88
2022/06/26 02:37:16;;;;;;;1.80;1.20;;;;;;;21.26;69.99;99475.53;4917831;29;20031;-89
2022/06/26 02:39:41;;;;;;;2.08;1.33;;;;;;;21.22;69.29;99482.44;4919527;29;20043;-88
2022/06/26 02:42:06;;;;;;;1.50;1.10;;;;;;;21.31;69.56;99485.78;4935150;29;20086;-88
2022/06/26 02:44:32;;;;;;;2.63;1.10;;;;;;;21.24;69.59;99487.69;4935030;29;20114;-88
2022/06/26 02:46:57;;;;;;;1.77;1.13;;;;;;;21.28;68.92;99499.81;4919917;29;20039;-89
2022/06/26 02:49:22;;;;;;;1.35;1.00;;;;;;;21.21;68.63;99509.84;4931663;29;20199;-88
2022/06/26 02:51:47;;;;;;;1.45;1.08;;;;;;;21.22;68.81;99508.81;4920686;29;20115;-89
2022/06/26 02:54:13;;;;;;;1.35;1.10;;;;;;;21.27;68.90;99509.84;4951317;29;20110;-88
2022/06/26 02:56:38;;;;;;;1.13;0.82;;;;;;;21.20;68.33;99524.50;4938111;29;20385;-89
2022/06/26 02:59:04;;;;;;;2.10;1.20;;;;;;;21.19;68.09;99526.41;4920684;29;20036;-88
2022/06/26 03:01:29;;;;;;;1.98;1.17;;;;;;;21.22;68.58;99520.53;4919071;29;20024;-88
2022/06/26 03:03:55;;;;;;;1.20;1.10;;;;;;;21.12;67.89;99519.31;4931222;29;20027;-88
2022/06/26 03:06:20;;;;;;;2.03;1.17;;;;;;;21.04;67.91;99514.97;4938322;29;20023;-90
2022/06/26 03:08:45;;;;;;;1.48;1.20;;;;;;;21.02;68.46;99514.34;4937969;29;20035;-89
2022/06/26 03:11:10;;;;;;;1.27;1.17;;;;;;;21.00;68.97;99521.91;4926531;29;20083;-86
2022/06/26 03:13:36;;;;;;;2.17;1.48;;;;;;;20.88;69.21;99532.63;4948249;29;20039;-86
2022/06/26 03:16:02;;;;;;;1.20;1.10;;;;;;;20.95;70.00;99544.31;4930650;29;20125;-86
2022/06/26 03:18:28;;;;;;;1.60;1.50;;;;;;;21.02;69.74;99547.81;4945855;29;20079;-86
2022/06/26 03:20:53;;;;;;;2.03;1.50;;;;;;;21.04;69.20;99553.03;4937201;29;20067;-86
2022/06/26 03:23:18;;;;;;;1.40;1.30;;;;;;;21.00;68.79;99549.94;4935335;29;20090;-86
2022/06/26 03:25:44;;;;;;;2.60;1.60;;;;;;;20.90;68.81;99535.94;4937376;29;20055;-86
2022/06/26 03:28:09;;;;;;;3.85;1.70;;;;;;;20.88;69.65;99526.34;4931730;28;20039;-86
2022/06/26 03:30:34;;;;;;;2.22;1.40;;;;;;;20.88;69.49;99532.63;4937808;29;20167;-86
2022/06/26 03:33:00;;;;;;;2.88;1.88;;;;;;;20.85;69.77;99551.25;4927814;29;20035;-87
2022/06/26 03:35:25;;;;;;;2.17;1.42;;;;;;;20.80;69.57;99551.03;4923511;29;20093;-86
2022/06/26 03:37:50;;;;;;;2.13;1.60;;;;;;;20.89;69.11;99552.47;4924725;29;20050;-86
2022/06/26 03:40:15;;;;;;;2.30;1.30;;;;;;;20.81;69.40;99550.84;4929394;29;20066;-86
2022/06/26 03:42:41;;;;;;;1.95;1.40;;;;;;;20.75;69.22;99544.34;4936494;29;20019;-86
2022/06/26 03:45:07;;;;;;;1.50;1.40;;;;;;;20.77;69.44;99538.69;4956970;29;20038;-86
2022/06/26 03:47:33;;;;;;;3.30;1.58;;;;;;;20.73;69.85;99542.91;4924526;29;20041;-86
2022/06/26 03:49:59;;;;;;;2.03;1.48;;;;;;;20.64;69.13;99546.91;4928273;29;20031;-86
2022/06/26 03:52:25;;;;;;;2.40;1.42;;;;;;;20.50;69.66;99539.81;4930771;29;20142;-86
2022/06/26 03:54:50;;;;;;;1.30;1.20;;;;;;;20.61;70.13;99548.16;4921402;29;20027;-86
2022/06/26 03:57:16;;;;;;;2.08;1.30;;;;;;;20.65;69.81;99560.28;4939165;29;20047;-85
2022/06/26 03:59:41;;;;;;;2.50;1.70;;;;;;;20.65;70.41;99554.84;4936864;29;20091;-86
2022/06/26 04:02:06;;;;;;;1.83;1.45;;;;;;;20.65;70.37;99564.88;4934789;29;20028;-86
2022/06/26 04:04:32;;;;;;;4.20;1.35;;;;;;;20.63;70.13;99566.97;4934695;29;20039;-86
2022/06/26 04:06:57;;;;;;;2.35;1.50;;;;;;;20.58;69.95;99564.06;4937044;29;20031;-86
2022/06/26 04:09:22;;;;;;;1.75;1.42;;;;;;;20.58;69.74;99574.91;4936670;29;20087;-86
2022/06/26 04:11:48;;;;;;;2.80;1.40;;;;;;;20.55;69.30;99567.19;4937335;29;20086;-86
2022/06/26 04:14:13;;;;;;;1.42;1.27;;;;;;;20.59;68.75;99572.00;4936664;29;20074;-86
2022/06/26 04:16:38;;;;;;;1.90;1.48;;;;;;;20.57;68.49;99574.09;4936917;29;20063;-87
2022/06/26 04:19:04;;;;;;;1.30;1.20;;;;;;;20.60;68.44;99575.53;4919103;29;20038;-88
2022/06/26 04:21:29;;;;;;;1.90;1.13;;;;;;;20.56;68.21;99577.00;4936244;29;20031;-87
2022/06/26 04:23:54;;;;;;;1.75;1.23;;;;;;;20.61;68.49;99571.78;4936479;29;20035;-88
2022/06/26 04:26:20;;;;;;;1.77;1.13;;;;;;;20.60;68.02;99570.94;4920198;29;20618;-87
2022/06/26 04:28:45;;;;;;;1.30;1.20;;;;;;;20.55;68.32;99572.63;4920287;29;20039;-87
2022/06/26 04:31:10;;;;;;;1.73;1.27;;;;;;;20.56;69.03;99577.84;4919897;29;20070;-87
2022/06/26 04:33:36;;;;;;;1.65;1.30;;;;;;;20.50;69.53;99584.13;4928315;29;20905;-88
2022/06/26 04:36:01;;;;;;;3.83;1.30;;;;;;;20.57;69.90;99576.81;4920233;29;20191;-87
2022/06/26 04:38:26;;;;;;;2.17;1.40;;;;;;;20.53;69.51;99582.88;4921059;29;20558;-88
2022/06/26 04:40:52;;;;;;;2.10;1.20;;;;;;;20.57;69.57;99587.66;4943598;28;20044;-87
2022/06/26 04:43:17;;;;;;;1.63;1.40;;;;;;;20.57;69.73;99570.53;4912183;29;20050;-87
2022/06/26 04:45:43;;;;;;;1.67;1.20;;;;;;;20.51;69.92;99574.09;4937609;29;20032;-87
2022/06/26 04:48:08;;;;;;;1.63;1.10;;;;;;;20.54;70.20;99570.97;4920853;29;20359;-88
2022/06/26 04:50:34;;;;;;;2.70;1.33;;;;;;;20.51;70.29;99579.53;4924032;29;20124;-87
2022/06/26 04:52:59;;;;;;;2.80;1.27;;;;;;;20.59;69.71;99576.59;4913905;29;20474;-87
2022/06/26 04:55:24;;;;;;;1.35;1.25;;;;;;;20.61;69.42;99586.19;4932414;29;20078;-87
2022/06/26 04:57:50;;;;;;;1.38;1.17;;;;;;;20.62;69.00;99584.31;4920793;29;20406;-87
2022/06/26 05:00:16;;;;;;;1.05;0.95;;;;;;;20.64;68.92;99590.38;4920280;29;20034;-87
2022/06/26 05:02:41;;;;;;;2.88;1.02;;;;;;;20.63;68.69;99583.28;4919102;29;20610;-87
2022/06/26 05:05:07;;;;;;;1.38;1.00;;;;;;;20.56;69.01;99594.16;4936226;29;20036;-87
2022/06/26 05:07:32;;;;;;;1.80;1.02;;;;;;;20.51;68.91;99598.56;4916815;29;20521;-87
2022/06/26 05:09:58;;;;;;;2.00;1.15;;;;;;;20.45;68.78;99607.56;4919783;29;20056;-87
2022/06/26 05:12:23;;;;;;;1.13;0.90;;;;;;;20.48;68.41;99612.56;4919770;29;20494;-87
2022/06/26 05:14:48;;;;;;;2.13;1.08;;;;;;;20.44;68.73;99623.00;4920031;29;20035;-87
2022/06/26 05:17:14;;;;;;;1.00;0.98;;;;;;;20.39;68.55;99612.78;4920394;29;20364;-87
2022/06/26 05:19:39;;;;;;;1.10;1.00;;;;;;;20.38;68.60;99624.66;4919730;29;20111;-87
2022/06/26 05:22:04;;;;;;;2.65;1.10;;;;;;;20.42;68.31;99623.22;4919621;29;20040;-88
2022/06/26 05:24:30;;;;;;;1.25;1.05;;;;;;;20.40;68.28;99627.19;4928731;29;20024;-88
2022/06/26 05:26:56;;;;;;;1.92;1.00;;;;;;;20.41;68.44;99626.16;4918171;29;20479;-88
2022/06/26 05:29:23;;;;;;;2.83;1.20;;;;;;;20.51;68.62;99623.00;4920098;29;20027;-88
2022/06/26 05:31:48;;;;;;;3.30;1.30;;;;;;;20.50;68.43;99619.44;4924172;29;20031;-87
2022/06/26 05:34:13;;;;;;;1.02;0.95;;;;;;;20.49;68.07;99625.09;4918233;29;20386;-88
2022/06/26 05:36:39;;;;;;;2.03;1.10;;;;;;;20.47;68.48;99635.34;4917203;29;20579;-86
2022/06/26 05:39:04;;;;;;;1.05;0.90;;;;;;;20.47;67.87;99638.06;4917596;29;20086;-87
2022/06/26 05:41:29;;;;;;;1.33;0.88;;;;;;;20.61;68.23;99626.13;4919421;29;20091;-86
2022/06/26 05:43:55;;;;;;;3.45;1.00;;;;;;;20.68;68.49;99632.38;4919434;29;20023;-88
2022/06/26 05:46:20;;;;;;;1.90;1.00;;;;;;;20.69;68.56;99640.31;4945448;29;20106;-88
2022/06/26 05:48:45;;;;;;;1.63;1.13;;;;;;;20.59;68.41;99650.78;4934969;29;20569;-87
2022/06/26 05:51:11;;;;;;;3.33;1.40;;;;;;;20.60;68.19;99657.06;4944712;28;20431;-87
2022/06/26 05:53:37;;;;;;;1.17;1.08;;;;;;;20.58;68.33;99659.16;4915647;29;20139;-88
2022/06/26 05:56:06;;;;;;;3.20;1.50;;;;;;;20.54;68.36;99669.63;4918727;29;20509;-87
2022/06/26 05:58:31;;;;;;;;;;;;;;;20.59;67.63;99664.38;4928285;29;20091;-87
2022/06/26 06:00:57;;;;;;;1.75;1.30;;;;;;;20.57;67.62;99671.06;4919965;29;19954;-87
2022/06/26 06:03:22;;;;;;;1.35;1.15;;;;;;;20.55;67.45;99678.59;4918940;29;20036;-88
2022/06/26 06:05:47;;;;;;;2.38;1.65;;;;;;;20.59;68.20;99679.84;4934631;29;20734;-88
2022/06/26 06:08:13;;;;;;;3.78;1.80;;;;;;;20.60;67.52;99679.63;4924878;29;20031;-88
2022/06/26 06:10:38;;;;;;;1.58;1.40;;;;;;;20.68;68.05;99665.84;4914964;29;20114;-88
2022/06/26 06:13:03;;;;;;;2.28;1.60;;;;;;;20.68;67.18;99674.00;4934065;29;20032;-87
2022/06/26 06:15:29;;;;;;;2.38;1.55;;;;;;;20.69;67.24;99675.66;4917957;29;20466;-88
2022/06/26 06:17:54;;;;;;;1.80;1.30;;;;;;;20.64;67.60;99678.16;4918119;29;20090;-88
2022/06/26 06:20:22;;;;;;;3.13;1.40;;;;;;;20.60;66.60;99690.50;4917707;29;20043;-88
2022/06/26 06:22:51;;;;;;;;;;;;;;;20.66;67.21;99680.69;4918862;29;20164;-88
2022/06/26 06:25:17;;;;;;;1.48;1.38;;;;;;;20.72;67.23;99693.44;4921845;29;19914;-87
2022/06/26 06:27:42;;;;;;;1.77;1.30;;;;;;;20.77;67.40;99695.50;4917499;29;20043;-88
2022/06/26 06:30:09;;;;;;;3.80;1.70;;;;;;;20.77;66.83;99681.91;4917955;29;20706;-87
2022/06/26 06:32:35;;;;;;;1.63;1.10;;;;;;;20.70;66.90;99687.38;4916346;29;20028;-88
2022/06/26 06:35:01;;;;;;;1.80;1.40;;;;;;;20.68;66.44;99676.69;4917413;29;20037;-88
2022/06/26 06:37:27;;;;;;;1.85;1.48;;;;;;;20.71;66.96;99678.16;4933356;29;20114;-88
2022/06/26 06:39:53;;;;;;;2.00;1.50;;;;;;;20.78;66.32;99681.72;4917202;29;20146;-88
2022/06/26 06:42:18;;;;;;;3.10;1.20;;;;;;;20.74;66.18;99672.31;4923738;29;20048;-88
2022/06/26 06:44:43;;;;;;;2.30;1.60;;;;;;;20.77;66.05;99679.19;4933280;29;20030;-88
2022/06/26 06:47:09;;;;;;;1.63;1.30;;;;;;;20.71;65.37;99679.00;4920768;29;20028;-88
2022/06/26 06:49:34;;;;;;;1.38;1.15;;;;;;;20.75;65.11;99674.81;4913946;29;20032;-88
2022/06/26 06:52:00;;;;;;;1.70;1.40;;;;;;;20.75;65.77;99676.69;4934107;29;20058;-88
2022/06/26 06:54:26;;;;;;;2.03;1.20;;;;;;;20.76;65.32;99675.66;4925823;29;20063;-88
2022/06/26 06:56:52;;;;;;;2.55;1.40;;;;;;;20.76;64.86;99689.25;4925555;29;20067;-87
2022/06/26 06:59:17;;;;;;;1.92;1.40;;;;;;;20.75;64.95;99695.72;4921693;29;20119;-87
2022/06/26 07:01:43;;;;;;;3.92;1.45;;;;;;;20.71;65.73;99705.34;4917767;29;20184;-88
2022/06/26 07:04:08;;;;;;;2.10;1.38;;;;;;;20.78;66.01;99716.22;4946993;28;20055;-87
2022/06/26 07:06:33;;;;;;;1.90;1.40;;;;;;;20.87;66.13;99715.81;4921315;29;20074;-87
2022/06/26 07:08:59;;;;;;;1.83;1.55;;;;;;;20.90;65.29;99718.09;4930036;29;20020;-87
2022/06/26 07:11:24;;;;;;;3.70;1.00;;;;;;;21.00;66.35;99717.69;4920095;29;20024;-87
2022/06/26 07:13:50;;;;;;;2.30;1.40;;;;;;;20.91;65.66;99722.50;4936540;29;20031;-88
2022/06/26 07:16:15;;;;;;;1.58;1.40;;;;;;;20.86;65.74;99738.59;4921631;29;20031;-88
2022/06/26 07:18:40;;;;;;;1.27;1.17;;;;;;;20.94;65.41;99741.09;4931729;29;20473;-87
2022/06/26 07:21:07;;;;;;;1.27;1.08;;;;;;;20.95;65.33;99742.78;4921277;29;20078;-87
2022/06/26 07:23:32;;;;;;;2.45;1.40;;;;;;;20.95;65.42;99745.50;4935070;29;20028;-87
2022/06/26 07:25:58;;;;;;;1.30;1.20;;;;;;;20.93;65.58;99746.75;4917661;29;20812;-87
2022/06/26 07:28:23;;;;;;;2.45;1.20;;;;;;;20.86;65.06;99757.63;4925901;29;20023;-87
2022/06/26 07:30:49;;;;;;;2.33;1.20;;;;;;;20.88;65.19;99771.03;4935240;29;20051;-88
2022/06/26 07:35:58;;;;;;;2.15;1.30;;;;;;;20.82;64.90;99786.28;4926918;29;20067;-87
2022/06/26 07:38:23;;;;;;;2.30;1.30;;;;;;;20.80;64.90;99791.06;4935015;29;20028;-88
2022/06/26 07:40:49;;;;;;;1.33;1.02;;;;;;;20.77;64.21;99798.81;4929978;29;20036;-88
2022/06/26 07:43:14;;;;;;;1.92;1.30;;;;;;;20.85;64.75;99804.06;4930455;29;20032;-87
2022/06/26 07:45:39;;;;;;;1.90;1.33;;;;;;;20.78;64.29;99803.19;4926507;29;20591;-87
2022/06/26 07:48:05;;;;;;;1.45;1.30;;;;;;;20.81;64.80;99797.34;4930152;29;20063;-87
2022/06/26 07:50:31;;;;;;;2.83;1.23;;;;;;;20.81;64.69;99803.66;4920886;29;20032;-88
2022/06/26 07:52:56;;;;;;;3.33;1.20;;;;;;;20.77;64.71;99796.91;4933299;29;20430;-87
2022/06/26 07:55:21;;;;;;;2.58;1.35;;;;;;;20.88;64.33;99792.78;4919928;29;20055;-87
2022/06/26 07:57:47;;;;;;;1.98;1.05;;;;;;;20.94;64.95;99789.22;4927709;29;20024;-87
2022/06/26 08:00:12;;;;;;;2.22;1.20;;;;;;;20.94;64.41;99784.63;4921450;29;20044;-87
2022/06/26 08:02:39;;;;;;;1.20;1.10;;;;;;;20.98;65.48;99788.59;4928515;29;20036;-87
2022/06/26 08:05:04;;;;;;;1.98;1.20;;;;;;;20.84;64.58;99789.63;4934928;29;20020;-87
2022/06/26 08:07:30;;;;;;;2.33;1.10;;;;;;;20.83;63.70;99792.56;4926153;29;20039;-88
2022/06/26 08:09:55;;;;;;;2.13;1.30;;;;;;;20.77;63.84;99787.94;4928049;29;20035;-85
2022/06/26 08:12:20;;;;;;;1.23;1.10;;;;;;;20.79;63.82;99777.69;4943818;29;20031;-87
2022/06/26 08:14:46;;;;;;;1.45;0.98;;;;;;;20.78;64.03;99776.84;4917461;29;20030;-87
2022/06/26 08:17:11;;;;;;;2.47;1.40;;;;;;;20.79;64.07;99775.81;4938450;29;20030;-86
2022/06/26 08:22:11;;;;;;;2.05;1.23;;;;;;;20.70;64.29;99758.03;5089255;23;20059;-86
2022/06/26 08:24:39;;;;;;;2.83;1.30;;;;;;;20.67;64.55;99782.91;4917857;29;20043;-87
2022/06/26 08:27:04;;;;;;;2.15;1.25;;;;;;;20.69;64.71;99792.53;4917624;29;20961;-87
2022/06/26 08:29:30;;;;;;;1.77;1.25;;;;;;;20.73;64.65;99790.22;4905741;29;20082;-87
2022/06/26 08:31:55;;;;;;;3.00;1.35;;;;;;;20.72;64.12;99783.97;4916752;29;20086;-87
2022/06/26 08:34:21;;;;;;;2.60;1.05;;;;;;;20.82;64.74;99793.59;4908610;29;20019;-87
2022/06/26 08:36:47;;;;;;;1.27;1.00;;;;;;;20.86;64.05;99784.81;4906028;29;20019;-88
2022/06/26 08:39:12;;;;;;;3.20;1.30;;;;;;;20.77;63.37;99794.19;4931304;29;20045;-88
2022/06/26 08:41:43;;;;;;;2.03;1.00;;;;;;;20.77;63.59;99785.22;4921407;29;20028;-89
2022/06/26 08:44:09;;;;;;;1.95;1.20;;;;;;;20.73;63.13;99791.06;4917576;29;20028;-88
2022/06/26 08:46:39;;;;;;;2.05;1.30;;;;;;;20.69;62.84;99797.97;4908182;29;20027;-88
2022/06/26 08:49:13;;;;;;;3.17;1.45;;;;;;;20.72;63.88;99802.97;4905985;29;20027;-85
2022/06/26 08:51:40;;;;;;;1.52;1.00;;;;;;;20.78;64.45;99806.75;4919923;29;20036;-85
2022/06/26 08:54:06;;;;;;;2.60;1.23;;;;;;;20.85;64.47;99804.91;4906154;29;20023;-87
2022/06/26 08:56:32;;;;;;;1.95;1.10;;;;;;;20.84;64.33;99803.22;4889326;29;20034;-85
2022/06/26 08:58:58;;;;;;;2.00;1.35;;;;;;;20.82;63.10;99799.03;4891136;29;20063;-85
2022/06/26 09:01:23;;;;;;;1.88;1.20;;;;;;;20.80;64.07;99798.38;4895003;29;20067;-86
2022/06/26 09:03:49;;;;;;;1.20;1.10;;;;;;;20.83;64.47;99807.00;4888219;29;20023;-85
2022/06/26 09:06:18;;;;;;;1.73;1.05;;;;;;;20.78;63.62;99814.06;4889762;29;20036;-85
2022/06/26 09:08:45;;;;;;;1.10;1.00;;;;;;;20.77;63.17;99807.78;4894262;29;20122;-85
2022/06/26 09:11:10;;;;;;;1.33;0.95;;;;;;;20.76;63.05;99811.56;4889356;29;20032;-85
2022/06/26 09:13:41;;;;;;;1.60;1.30;;;;;;;20.79;63.31;99805.72;4884760;29;20035;-86
2022/06/26 09:16:06;;;;;;;2.03;1.10;;;;;;;20.82;62.86;99804.47;4883197;29;20183;-85
2022/06/26 09:18:37;;;;;;;1.52;1.00;;;;;;;20.73;63.11;99788.34;4892516;29;20028;-85
2022/06/26 09:21:04;;;;;;;1.20;1.10;;;;;;;20.67;63.27;99804.66;4892391;29;20067;-85
2022/06/26 09:23:33;;;;;;;1.00;0.90;;;;;;;20.74;63.46;99819.91;4890650;29;20035;-85
2022/06/26 09:25:59;;;;;;;2.13;1.08;;;;;;;20.79;63.25;99818.47;4889893;29;20038;-86
2022/06/26 09:28:25;;;;;;;3.03;0.98;;;;;;;20.81;63.21;99824.53;4900858;29;20598;-86
2022/06/26 09:30:53;;;;;;;2.40;1.10;;;;;;;20.76;64.01;99825.16;4881290;29;20036;-85
2022/06/26 09:33:23;;;;;;;2.47;1.45;;;;;;;20.77;64.97;99831.44;4902392;29;20024;-85
2022/06/26 09:35:49;;;;;;;2.13;1.20;;;;;;;20.76;65.35;99825.16;4924656;29;20036;-84
2022/06/26 09:38:16;;;;;;;2.58;1.02;;;;;;;20.75;65.35;99812.59;4892850;29;20406;-85
2022/06/26 09:40:46;;;;;;;2.17;1.10;;;;;;;20.75;65.77;99816.16;4889609;29;20024;-85
2022/06/26 09:43:15;;;;;;;1.25;1.10;;;;;;;20.70;65.55;99825.97;4892769;29;20390;-85
2022/06/26 09:45:40;;;;;;;2.20;1.10;;;;;;;20.71;65.36;99839.38;4889446;29;20048;-85
2022/06/26 09:48:09;;;;;;;1.58;1.30;;;;;;;20.68;64.78;99837.06;4890267;29;20027;-85
2022/06/26 09:50:34;;;;;;;1.50;1.00;;;;;;;20.66;64.97;99832.88;4889874;29;20965;-85
2022/06/26 09:53:00;;;;;;;1.60;0.77;;;;;;;20.73;65.01;99831.00;4888196;29;20023;-85
2022/06/26 09:55:25;;;;;;;3.17;1.23;;;;;;;20.73;64.80;99831.00;4892312;29;20086;-85
2022/06/26 09:57:51;;;;;;;1.63;1.08;;;;;;;20.74;65.07;99835.41;4886358;29;20020;-85
2022/06/26 10:00:16;;;;;;;1.73;1.13;;;;;;;20.73;65.52;99833.72;4904427;29;20032;-85
2022/06/26 10:08:13;;;;;;;1.90;1.00;;;;;;;20.72;67.37;99848.34;4903564;29;20438;-84
2022/06/26 10:10:40;;;;;;;2.03;1.25;;;;;;;20.69;67.93;99843.34;4894687;29;20028;-84
2022/06/26 10:13:07;;;;;;;1.30;1.17;;;;;;;20.75;67.09;99843.34;4887076;29;20043;-87
2022/06/26 10:15:35;;;;;;;1.45;1.13;;;;;;;20.67;67.30;99853.56;4904790;29;20122;-86
2022/06/26 10:18:10;;;;;;;;;;;;;;;20.68;66.99;99855.25;4901821;29;20563;-85
2022/06/26 10:20:36;;;;;;;2.00;1.08;;;;;;;20.69;68.41;99855.03;4935165;29;20330;-85
2022/06/26 10:23:02;;;;;;;1.90;0.90;;;;;;;20.67;67.91;99862.56;4904641;29;20032;-86
2022/06/26 10:25:30;;;;;;;1.98;1.17;;;;;;;20.68;68.57;99864.25;4889404;29;20074;-86
2022/06/26 10:27:56;;;;;;;2.70;1.25;;;;;;;20.66;68.39;99863.59;4904778;29;20541;-86
2022/06/26 10:30:26;;;;;;;2.22;1.05;;;;;;;20.68;68.06;99863.41;4891644;29;20031;-85
2022/06/26 10:33:13;;;;;;;1.58;1.23;;;;;;;20.70;68.07;99866.75;4891840;29;20099;-85
2022/06/26 10:35:41;;;;;;;2.30;1.05;;;;;;;20.66;68.26;99858.16;4890646;29;20028;-86
2022/06/26 10:38:21;;;;;;;1.27;0.93;;;;;;;20.69;68.60;99852.31;4889291;29;20047;-85
2022/06/26 10:43:43;;;;;;;2.55;1.20;;;;;;;20.75;68.49;99856.09;4904549;29;20511;-86
2022/06/26 10:46:11;;;;;;;1.60;1.10;;;;;;;20.71;68.06;99854.84;4889450;29;20076;-86
2022/06/26 10:48:36;;;;;;;2.95;1.20;;;;;;;20.70;67.63;99851.28;4893347;29;20019;-86
2022/06/26 10:51:02;;;;;;;1.38;1.23;;;;;;;20.74;67.22;99848.97;4890185;29;20041;-86
2022/06/26 10:53:36;;;;;;;1.73;0.95;;;;;;;20.67;66.25;99846.25;4890437;29;20039;-85
2022/06/26 10:56:04;;;;;;;2.45;1.30;;;;;;;20.81;66.96;99849.00;4907977;29;20032;-85
2022/06/26 10:58:38;;;;;;;1.88;1.10;;;;;;;20.86;67.55;99854.69;4897009;29;20035;-85
2022/06/26 11:01:06;;;;;;;2.83;1.10;;;;;;;20.82;66.93;99856.97;4905079;29;20020;-85
2022/06/26 11:03:32;;;;;;;1.70;1.20;;;;;;;20.76;66.90;99844.19;4906781;29;20427;-85
2022/06/26 11:05:59;;;;;;;2.05;1.20;;;;;;;20.81;67.23;99847.16;4890635;29;20082;-85
2022/06/26 11:08:35;;;;;;;1.35;0.88;;;;;;;20.75;65.75;99835.19;4888923;29;20514;-85
2022/06/26 11:11:05;;;;;;;1.48;1.15;;;;;;;20.78;66.02;99835.81;4889823;29;20032;-85
2022/06/26 11:13:31;;;;;;;2.13;1.17;;;;;;;20.81;65.87;99832.69;4888086;29;20040;-85
2022/06/26 11:15:57;;;;;;;1.75;1.10;;;;;;;20.86;65.74;99824.78;4890528;29;20455;-84
2022/06/26 11:18:22;;;;;;;2.10;1.20;;;;;;;20.88;66.67;99820.78;4889856;29;20032;-85
2022/06/26 11:20:50;;;;;;;2.47;0.93;;;;;;;20.93;67.18;99826.44;4884959;29;20120;-85
2022/06/26 11:23:18;;;;;;;2.10;1.20;;;;;;;20.92;66.34;99818.50;4903684;29;20040;-85
2022/06/26 11:25:46;;;;;;;2.58;1.30;;;;;;;20.93;66.61;99817.44;4889699;29;20071;-85
2022/06/26 11:28:12;;;;;;;1.52;1.17;;;;;;;20.98;66.04;99818.50;4898770;29;20849;-86
2022/06/26 11:30:38;;;;;;;2.90;1.45;;;;;;;21.01;66.25;99819.97;4889598;29;20032;-85
2022/06/26 11:33:05;;;;;;;2.03;1.30;;;;;;;21.01;65.87;99819.97;4905102;29;20024;-85
2022/06/26 11:35:30;;;;;;;2.85;1.40;;;;;;;20.96;65.20;99817.03;4898862;29;20062;-85
2022/06/26 11:37:57;;;;;;;1.48;1.10;;;;;;;21.04;64.35;99814.09;4889440;29;20032;-85
2022/06/26 11:40:23;;;;;;;1.13;0.90;;;;;;;21.01;62.76;99817.25;4892102;29;20159;-84
2022/06/26 11:42:55;;;;;;;1.25;0.90;;;;;;;21.09;63.43;99818.91;4905538;29;20720;-85
2022/06/26 11:45:24;;;;;;;1.48;1.20;;;;;;;21.08;61.89;99822.69;4907402;29;20028;-85
2022/06/26 11:47:50;;;;;;;1.52;1.10;;;;;;;21.11;61.94;99828.53;4891906;29;20423;-85